Time;durP1;ratioP1;P1;durP2;ratioP2;P2;SDS_P1;SDS_P2;PMS_P1;PMS_P2;Temp;Humidity;BMP_temperature;BMP_pressure;BME280_temperature;BME280_humidity;BME280_pressure;Samples;Min_cycle;Max_cycle;Signal;HPM_P1;HPM_P2
2023/04/12 00:01:50;;;;;;;14.00;3.17;;;;;;;10.86;61.20;99418.25;5010572;28;20049;-85
2023/04/12 00:04:17;;;;;;;7.78;3.28;;;;;;;10.90;61.39;99429.44;4999032;28;20041;-84
2023/04/12 00:06:47;;;;;;;9.18;2.90;;;;;;;10.86;61.38;99421.75;5005982;28;20037;-84
2023/04/12 00:09:17;;;;;;;8.25;2.75;;;;;;;10.93;61.00;99424.66;5001131;28;20054;-85
2023/04/12 00:11:43;;;;;;;5.70;2.72;;;;;;;10.80;62.21;99414.38;5012085;28;20223;-85
2023/04/12 00:14:10;;;;;;;9.90;2.97;;;;;;;10.86;62.45;99423.56;4991780;28;20063;-84
2023/04/12 00:16:37;;;;;;;7.32;3.03;;;;;;;10.82;63.36;99425.69;5010754;28;20049;-85
2023/04/12 00:19:05;;;;;;;8.32;3.17;;;;;;;10.74;63.42;99416.78;5011366;28;20125;-85
2023/04/12 00:21:32;;;;;;;8.02;3.20;;;;;;;10.76;63.41;99413.00;4994069;28;20051;-85
2023/04/12 00:23:58;;;;;;;8.93;3.50;;;;;;;10.74;63.04;99408.84;4996387;28;20053;-85
2023/04/12 00:26:25;;;;;;;8.15;3.25;;;;;;;10.76;63.92;99409.50;5001092;28;20050;-85
2023/04/12 00:28:53;;;;;;;8.80;3.20;;;;;;;10.73;64.30;99410.63;5000837;28;20285;-84
2023/04/12 00:31:20;;;;;;;7.40;3.40;;;;;;;10.77;64.47;99405.88;4982325;28;20046;-84
2023/04/12 00:33:46;;;;;;;7.50;2.55;;;;;;;10.69;64.59;99400.47;5001791;28;20077;-85
2023/04/12 00:36:13;;;;;;;9.18;4.47;;;;;;;10.68;64.71;99401.44;5009614;28;20054;-85
2023/04/12 00:38:41;;;;;;;5.20;2.67;;;;;;;10.67;64.94;99403.25;4989902;28;20528;-86
2023/04/12 00:41:08;;;;;;;10.73;3.72;;;;;;;10.67;65.79;99400.59;4999025;28;20175;-85
2023/04/12 00:43:41;;;;;;;9.93;3.53;;;;;;;10.59;67.03;99390.72;4998890;28;20441;-84
2023/04/12 00:46:11;;;;;;;6.82;3.40;;;;;;;10.69;66.33;99398.66;4992873;28;20038;-85
2023/04/12 00:48:39;;;;;;;10.30;3.10;;;;;;;10.67;67.29;99389.97;4977268;28;20045;-85
2023/04/12 00:51:06;;;;;;;7.82;3.90;;;;;;;10.64;67.71;99391.13;5007217;28;20469;-85
2023/04/12 00:53:33;;;;;;;11.57;4.88;;;;;;;10.62;68.34;99386.94;4987073;28;20477;-84
2023/04/12 00:56:02;;;;;;;9.07;4.32;;;;;;;10.65;68.50;99381.31;4975733;28;20128;-85
2023/04/12 00:58:30;;;;;;;10.50;5.57;;;;;;;10.61;69.08;99383.44;4990326;28;20046;-85
2023/04/12 01:00:57;;;;;;;16.55;7.50;;;;;;;10.64;68.66;99379.66;4990886;28;20077;-85
2023/04/12 01:03:26;;;;;;;9.73;3.53;;;;;;;10.69;69.40;99381.88;4999400;28;20132;-85
2023/04/12 01:06:13;;;;;;;6.85;3.30;;;;;;;10.51;70.67;99371.22;4971059;28;20127;-85
2023/04/12 01:08:42;;;;;;;9.40;2.92;;;;;;;10.61;69.70;99370.16;4990483;28;20471;-84
2023/04/12 01:11:25;;;;;;;10.85;5.57;;;;;;;10.49;71.58;99371.34;5020889;28;20045;-85
2023/04/12 01:14:04;;;;;;;6.95;3.83;;;;;;;10.56;70.40;99371.59;4978113;28;20136;-85
2023/04/12 01:16:43;;;;;;;10.40;4.07;;;;;;;10.47;71.31;99364.50;5004146;28;20520;-85
2023/04/12 01:19:43;;;;;;;8.30;3.55;;;;;;;10.38;71.12;99376.81;4991506;28;20120;-85
2023/04/12 01:22:52;;;;;;;9.98;3.80;;;;;;;10.45;71.36;99372.59;4965857;28;20096;-85
2023/04/12 01:25:39;;;;;;;6.82;3.40;;;;;;;10.35;73.13;99363.84;4933458;28;20050;-85
2023/04/12 01:28:09;;;;;;;12.35;3.58;;;;;;;10.47;72.44;99361.84;5010651;28;20403;-85
2023/04/12 01:30:37;;;;;;;7.60;3.33;;;;;;;10.48;72.75;99358.19;4970028;28;20384;-85
2023/04/12 01:33:06;;;;;;;6.40;3.70;;;;;;;10.44;73.04;99357.69;4979945;28;20100;-85
2023/04/12 01:35:33;;;;;;;8.13;3.55;;;;;;;10.42;73.38;99349.84;4977819;28;20096;-85
2023/04/12 01:38:02;;;;;;;9.20;3.80;;;;;;;10.49;73.02;99350.09;5012712;28;20037;-85
2023/04/12 01:40:30;;;;;;;8.50;3.30;;;;;;;10.48;73.26;99344.94;4991071;28;20571;-85
2023/04/12 01:43:07;;;;;;;8.95;3.38;;;;;;;10.44;75.00;99339.09;4998157;28;20065;-85
2023/04/12 01:45:35;;;;;;;10.25;3.53;;;;;;;10.49;74.38;99336.00;4983488;28;20099;-85
2023/04/12 01:48:08;;;;;;;10.73;3.50;;;;;;;10.38;76.07;99326.38;4988876;28;20064;-84
2023/04/12 01:50:44;;;;;;;10.70;3.50;;;;;;;10.36;76.51;99331.88;5012557;28;20054;-85
2023/04/12 01:53:22;;;;;;;6.68;3.90;;;;;;;10.40;76.42;99322.59;4972625;28;20127;-85
2023/04/12 01:55:49;;;;;;;7.70;3.67;;;;;;;10.42;76.82;99318.00;4998325;28;20045;-85
2023/04/12 01:58:20;;;;;;;8.50;4.40;;;;;;;10.35;78.16;99321.38;5002342;28;20042;-85
2023/04/12 02:00:49;;;;;;;12.70;5.53;;;;;;;10.47;76.94;99314.91;4988419;28;20055;-85
2023/04/12 02:03:19;;;;;;;16.58;5.03;;;;;;;10.48;77.55;99305.97;4994925;28;20045;-85
2023/04/12 02:05:50;;;;;;;9.35;3.60;;;;;;;10.45;77.86;99300.94;4998620;28;20049;-85
2023/04/12 02:08:19;;;;;;;9.73;4.35;;;;;;;10.53;76.79;99292.22;5021849;28;20059;-85
2023/04/12 02:10:46;;;;;;;5.75;3.65;;;;;;;10.51;77.52;99288.91;5015690;28;20061;-85
2023/04/12 02:13:16;;;;;;;7.90;4.22;;;;;;;10.51;77.38;99278.28;5010368;28;20045;-85
2023/04/12 02:15:44;;;;;;;19.02;6.75;;;;;;;10.52;77.82;99279.94;4983312;28;20087;-85
2023/04/12 02:18:12;;;;;;;25.90;10.98;;;;;;;10.51;78.00;99278.28;4997643;28;20092;-86
2023/04/12 02:20:42;;;;;;;16.10;6.63;;;;;;;10.61;77.15;99273.75;4971751;28;20045;-85
2023/04/12 02:23:09;;;;;;;14.27;7.00;;;;;;;10.58;77.34;99266.06;5008088;28;20129;-85
2023/04/12 02:25:37;;;;;;;16.05;6.43;;;;;;;10.53;78.00;99263.88;4981852;28;20044;-85
2023/04/12 02:28:05;;;;;;;16.33;7.30;;;;;;;10.52;78.14;99259.53;4970431;28;20358;-85
2023/04/12 02:30:33;;;;;;;12.13;5.70;;;;;;;10.52;77.96;99251.59;5001852;28;20431;-85
2023/04/12 02:33:01;;;;;;;12.15;5.38;;;;;;;10.49;78.53;99249.22;5021809;28;20139;-85
2023/04/12 02:35:32;;;;;;;12.80;6.63;;;;;;;10.47;78.61;99247.72;5014982;28;20049;-85
2023/04/12 02:38:07;;;;;;;12.27;5.53;;;;;;;10.47;78.80;99235.28;4983399;28;20160;-85
2023/04/12 02:40:40;;;;;;;19.10;8.82;;;;;;;10.50;79.05;99231.47;5003321;28;20084;-85
2023/04/12 02:43:11;;;;;;;16.63;7.00;;;;;;;10.53;78.18;99225.88;4994172;28;20041;-85
2023/04/12 02:45:42;;;;;;;12.90;5.55;;;;;;;10.49;78.07;99230.66;4967836;28;20046;-85
2023/04/12 02:48:10;;;;;;;8.30;4.57;;;;;;;10.52;78.29;99232.16;5006179;28;20132;-85
2023/04/12 02:50:38;;;;;;;10.88;4.28;;;;;;;10.50;78.60;99216.38;4986523;28;20451;-85
2023/04/12 02:53:14;;;;;;;12.88;6.80;;;;;;;10.50;78.90;99207.59;5001938;28;20064;-85
2023/04/12 02:55:45;;;;;;;10.63;5.10;;;;;;;10.51;79.12;99207.44;4996114;28;20048;-85
2023/04/12 02:58:13;;;;;;;13.77;6.63;;;;;;;10.54;78.65;99201.00;4981246;28;20046;-85
2023/04/12 03:00:45;;;;;;;27.08;17.05;;;;;;;10.57;78.59;99196.22;5000153;28;20060;-85
2023/04/12 03:03:16;;;;;;;22.30;10.27;;;;;;;10.52;78.64;99187.03;4967187;28;20073;-85
2023/04/12 03:05:46;;;;;;;8.70;4.25;;;;;;;10.51;79.22;99186.22;4979278;28;20042;-86
2023/04/12 03:08:15;;;;;;;14.73;4.82;;;;;;;10.51;79.30;99183.56;4995711;28;20045;-85
2023/04/12 03:10:50;;;;;;;11.30;4.78;;;;;;;10.49;79.33;99185.53;4982080;28;20171;-85
2023/04/12 03:13:17;;;;;;;10.93;5.40;;;;;;;10.54;79.38;99188.56;4983606;28;20056;-85
2023/04/12 03:15:48;;;;;;;8.82;4.68;;;;;;;10.52;79.45;99184.38;4973515;28;20052;-85
2023/04/12 03:18:19;;;;;;;11.73;4.90;;;;;;;10.53;79.26;99178.09;4980917;28;20470;-85
2023/04/12 03:20:49;;;;;;;11.65;5.10;;;;;;;10.49;80.26;99174.91;4980625;28;20049;-85
2023/04/12 03:23:16;;;;;;;9.88;4.72;;;;;;;10.48;80.04;99169.75;5006152;28;20092;-84
2023/04/12 03:25:47;;;;;;;12.82;6.47;;;;;;;10.45;80.00;99165.56;5011492;28;20045;-85
2023/04/12 03:28:33;;;;;;;12.50;5.55;;;;;;;10.51;79.61;99164.97;5004125;28;20592;-85
2023/04/12 03:31:03;;;;;;;15.02;5.15;;;;;;;10.47;79.92;99152.97;4996565;28;20049;-84
2023/04/12 03:33:44;;;;;;;9.95;4.70;;;;;;;10.50;79.89;99151.84;4967904;28;20153;-86
2023/04/12 03:36:23;;;;;;;7.90;4.20;;;;;;;10.56;79.61;99148.59;4996770;28;20045;-85
2023/04/12 03:39:07;;;;;;;10.90;4.22;;;;;;;10.51;80.20;99151.72;4994109;28;20061;-85
2023/04/12 03:41:36;;;;;;;9.15;4.55;;;;;;;10.51;80.42;99148.22;5020894;28;20100;-85
2023/04/12 03:44:04;;;;;;;8.07;4.28;;;;;;;10.52;80.10;99140.09;5013563;28;20308;-85
2023/04/12 03:46:33;;;;;;;8.77;4.57;;;;;;;10.47;80.40;99134.41;5017363;28;20052;-85
2023/04/12 03:49:04;;;;;;;7.57;4.53;;;;;;;10.51;80.22;99130.47;4985884;28;20129;-85
2023/04/12 03:51:32;;;;;;;10.63;4.88;;;;;;;10.49;80.54;99124.47;4982982;28;20134;-85
2023/04/12 03:54:03;;;;;;;12.40;5.03;;;;;;;10.47;80.91;99121.13;5018642;28;20045;-85
2023/04/12 03:56:39;;;;;;;11.73;5.45;;;;;;;10.45;81.20;99109.81;4996406;28;20374;-85
2023/04/12 03:59:13;;;;;;;12.60;5.85;;;;;;;10.39;81.25;99115.75;4984943;28;20049;-85
2023/04/12 04:01:43;;;;;;;8.93;4.85;;;;;;;10.41;81.59;99109.31;5012883;28;20053;-85
2023/04/12 04:04:10;;;;;;;11.73;5.15;;;;;;;10.39;82.14;99100.66;4993384;28;20487;-85
2023/04/12 04:06:37;;;;;;;12.23;5.28;;;;;;;10.37;81.92;99099.97;4963026;28;20072;-85
2023/04/12 04:09:04;;;;;;;16.23;7.07;;;;;;;10.37;82.32;99101.81;4972540;28;20053;-85
2023/04/12 04:11:34;;;;;;;15.80;6.10;;;;;;;10.32;82.69;99088.97;4989287;28;20048;-85
2023/04/12 04:14:06;;;;;;;10.27;5.40;;;;;;;10.36;82.24;99082.41;5014214;28;20482;-85
2023/04/12 04:16:33;;;;;;;16.65;7.57;;;;;;;10.37;82.51;99072.59;4996164;28;20041;-85
2023/04/12 04:19:02;;;;;;;15.85;6.45;;;;;;;10.45;82.30;99075.31;4966624;28;20100;-85
2023/04/12 04:21:30;;;;;;;14.18;6.50;;;;;;;10.42;82.31;99073.81;4981256;28;20520;-85
2023/04/12 04:24:00;;;;;;;8.20;5.20;;;;;;;10.47;81.79;99065.41;4978227;28;20561;-85
2023/04/12 04:26:33;;;;;;;11.23;5.30;;;;;;;10.41;82.71;99064.19;5000631;28;20049;-85
2023/04/12 04:29:10;;;;;;;10.60;5.40;;;;;;;10.39;82.63;99052.88;4982721;28;20049;-85
2023/04/12 04:31:38;;;;;;;11.75;5.43;;;;;;;10.38;82.96;99045.06;4991034;28;21844;-85
2023/04/12 04:34:07;;;;;;;10.50;5.32;;;;;;;10.33;83.03;99056.16;4983465;28;20054;-85
2023/04/12 04:36:40;;;;;;;8.63;4.80;;;;;;;10.37;82.36;99049.56;5010639;28;20061;-85
2023/04/12 04:39:08;;;;;;;12.98;4.57;;;;;;;10.36;83.05;99044.41;4991611;28;20045;-85
2023/04/12 04:41:40;;;;;;;12.15;5.35;;;;;;;10.41;82.74;99034.16;4997344;28;20042;-85
2023/04/12 04:44:13;;;;;;;;;;;;;;;10.19;85.39;99033.63;4985971;28;20057;-85
2023/04/12 04:46:49;;;;;;;17.00;5.63;;;;;;;10.42;83.15;99028.69;5004594;28;19932;-85
2023/04/12 04:49:15;;;;;;;17.98;5.72;;;;;;;10.42;82.96;99026.03;5004819;28;20046;-84
2023/04/12 04:51:42;;;;;;;13.63;4.88;;;;;;;10.46;82.65;99018.63;5015012;28;20057;-84
2023/04/12 04:54:12;;;;;;;10.73;4.60;;;;;;;10.51;82.27;99023.47;4999143;28;20141;-85
2023/04/12 04:56:40;;;;;;;11.38;4.90;;;;;;;10.47;82.57;99012.31;5007006;28;20046;-85
2023/04/12 04:59:09;;;;;;;12.98;4.82;;;;;;;10.48;82.68;99006.03;4980684;28;20049;-84
2023/04/12 05:01:36;;;;;;;11.07;4.22;;;;;;;10.54;82.64;99009.88;5003910;28;20140;-85
2023/04/12 05:04:03;;;;;;;9.85;4.72;;;;;;;10.58;82.07;98997.94;5017844;28;20434;-85
2023/04/12 05:06:30;;;;;;;13.07;4.53;;;;;;;10.57;82.04;98998.94;5011514;28;20329;-85
2023/04/12 05:09:00;;;;;;;14.88;5.50;;;;;;;10.56;82.33;99002.59;4997160;28;20049;-85
2023/04/12 05:11:29;;;;;;;13.48;4.28;;;;;;;10.52;82.56;98995.91;5012654;28;20137;-84
2023/04/12 05:13:56;;;;;;;16.83;4.57;;;;;;;10.56;82.49;98995.47;5004871;28;20121;-85
2023/04/12 05:16:23;;;;;;;11.40;4.68;;;;;;;10.56;82.71;98998.13;4989053;28;20053;-84
2023/04/12 05:18:50;;;;;;;10.75;4.95;;;;;;;10.56;82.57;99000.78;5013853;28;20042;-84
2023/04/12 05:21:17;;;;;;;7.63;4.57;;;;;;;10.57;82.44;98993.63;5002137;28;20048;-85
2023/04/12 05:23:45;;;;;;;11.95;4.38;;;;;;;10.63;82.06;99003.63;4999507;28;20423;-84
2023/04/12 05:26:12;;;;;;;15.52;5.22;;;;;;;10.68;81.62;98995.19;4996082;28;20072;-84
2023/04/12 05:28:44;;;;;;;7.57;4.03;;;;;;;10.63;81.69;98999.16;4985844;28;20418;-84
2023/04/12 05:31:11;;;;;;;12.93;4.60;;;;;;;10.55;82.46;98992.94;4979128;28;20046;-85
2023/04/12 05:33:38;;;;;;;9.65;4.47;;;;;;;10.55;82.89;98987.63;5025196;28;20498;-85
2023/04/12 05:36:05;;;;;;;12.02;4.20;;;;;;;10.57;82.83;98988.31;5008794;28;20050;-85
2023/04/12 05:38:33;;;;;;;7.25;3.72;;;;;;;10.60;82.54;98974.72;4998329;28;20045;-85
2023/04/12 05:41:04;;;;;;;7.97;4.00;;;;;;;10.57;82.76;98964.44;4992881;28;20064;-84
2023/04/12 05:43:33;;;;;;;7.43;3.50;;;;;;;10.56;82.95;98965.44;4985981;28;20481;-85
2023/04/12 05:46:00;;;;;;;9.95;4.25;;;;;;;10.55;83.25;98955.78;4978446;28;20042;-85
2023/04/12 05:48:28;;;;;;;7.75;3.80;;;;;;;10.60;82.68;98945.53;4981201;28;20064;-85
2023/04/12 05:50:57;;;;;;;8.50;3.63;;;;;;;10.61;82.72;98941.91;5004004;28;20053;-85
2023/04/12 05:53:24;;;;;;;9.13;3.65;;;;;;;10.60;82.50;98940.22;4998206;28;20052;-84
2023/04/12 05:55:53;;;;;;;8.48;3.78;;;;;;;10.60;82.89;98948.19;5001151;28;20053;-84
2023/04/12 05:58:20;;;;;;;11.93;3.72;;;;;;;10.62;82.53;98947.03;4983068;28;20133;-85
2023/04/12 06:00:53;;;;;;;8.55;3.53;;;;;;;10.56;82.92;98939.72;4966494;28;20422;-84
2023/04/12 06:03:22;;;;;;;11.38;3.85;;;;;;;10.50;83.73;98935.00;5009613;28;20049;-84
2023/04/12 06:05:51;;;;;;;9.48;3.28;;;;;;;10.54;83.41;98933.72;4987674;28;20284;-84
2023/04/12 06:08:18;;;;;;;6.32;3.35;;;;;;;10.56;83.06;98926.44;5001760;28;20053;-84
2023/04/12 06:10:45;;;;;;;6.72;3.38;;;;;;;10.56;83.29;98925.63;5010550;28;20045;-84
2023/04/12 06:13:12;;;;;;;9.60;3.00;;;;;;;10.56;83.45;98912.34;4983571;28;20080;-85
2023/04/12 06:15:41;;;;;;;7.60;3.80;;;;;;;10.49;84.03;98913.97;5002514;28;20099;-85
2023/04/12 06:18:08;;;;;;;7.72;3.20;;;;;;;10.49;83.90;98908.66;5006905;28;20513;-85
2023/04/12 06:20:38;;;;;;;6.10;3.00;;;;;;;10.43;84.95;98897.69;4981320;28;20057;-85
2023/04/12 06:23:05;;;;;;;17.92;2.97;;;;;;;10.45;84.49;98892.19;4981494;28;20067;-84
2023/04/12 06:25:33;;;;;;;11.30;3.33;;;;;;;10.53;83.81;98886.94;5009505;28;20116;-85
2023/04/12 06:28:01;;;;;;;9.13;4.00;;;;;;;10.50;84.30;98876.63;4988476;28;20458;-84
2023/04/12 06:30:28;;;;;;;15.43;4.22;;;;;;;10.51;84.37;98869.50;5001819;28;20049;-85
2023/04/12 06:32:55;;;;;;;8.00;4.30;;;;;;;10.53;84.66;98864.84;4978977;28;20394;-85
2023/04/12 06:35:22;;;;;;;5.25;2.65;;;;;;;10.57;83.87;98858.25;4983840;28;20546;-84
2023/04/12 06:37:49;;;;;;;11.50;3.15;;;;;;;10.56;83.94;98854.75;4998591;28;20073;-84
2023/04/12 06:40:16;;;;;;;12.32;3.22;;;;;;;10.57;83.78;98853.75;5009691;28;20065;-85
2023/04/12 06:42:43;;;;;;;7.20;3.00;;;;;;;10.58;83.63;98846.63;5004406;28;20297;-85
2023/04/12 06:45:10;;;;;;;4.47;3.08;;;;;;;10.67;83.57;98843.03;5000811;28;20050;-85
2023/04/12 06:47:37;;;;;;;7.38;3.10;;;;;;;10.65;83.49;98837.84;4991191;28;20046;-85
2023/04/12 06:50:05;;;;;;;4.38;2.85;;;;;;;10.65;83.76;98827.25;5004627;28;20417;-84
2023/04/12 06:52:32;;;;;;;6.38;2.70;;;;;;;10.68;83.56;98827.91;5017702;28;20056;-84
2023/04/12 06:54:59;;;;;;;11.02;3.28;;;;;;;10.67;83.68;98827.09;5005184;28;20099;-84
2023/04/12 06:57:26;;;;;;;5.97;2.53;;;;;;;10.69;83.50;98821.63;5018929;28;20053;-85
2023/04/12 06:59:53;;;;;;;7.35;2.90;;;;;;;10.69;83.64;98818.97;4984449;28;20041;-85
2023/04/12 07:02:19;;;;;;;6.57;3.47;;;;;;;10.69;83.52;98813.66;4994744;28;20045;-84
2023/04/12 07:04:51;;;;;;;8.38;2.72;;;;;;;10.67;84.10;98808.50;4998620;28;20057;-84
2023/04/12 07:07:19;;;;;;;9.52;3.05;;;;;;;10.73;83.39;98809.69;5008593;28;20058;-84
2023/04/12 07:09:51;;;;;;;10.90;3.13;;;;;;;10.69;83.55;98798.56;4992375;28;20053;-85
2023/04/12 07:12:17;;;;;;;14.73;3.97;;;;;;;10.69;84.03;98798.56;4999058;28;20045;-84
2023/04/12 07:14:44;;;;;;;8.05;3.75;;;;;;;10.66;84.34;98780.31;4997783;28;20042;-84
2023/04/12 07:17:11;;;;;;;7.90;3.42;;;;;;;10.67;84.68;98784.63;5014985;28;20050;-84
2023/04/12 07:19:38;;;;;;;8.15;4.00;;;;;;;10.70;84.78;98778.16;4999373;28;20092;-85
2023/04/12 07:22:05;;;;;;;9.43;4.13;;;;;;;10.70;84.58;98771.00;4993969;28;20383;-84
2023/04/12 07:24:31;;;;;;;9.40;3.30;;;;;;;10.70;84.70;98767.53;4982158;28;20542;-85
2023/04/12 07:26:58;;;;;;;7.60;3.33;;;;;;;10.73;84.54;98767.19;5000934;28;20125;-85
2023/04/12 07:29:25;;;;;;;7.38;3.40;;;;;;;10.74;84.44;98763.56;4998538;28;20132;-84
2023/04/12 07:31:52;;;;;;;8.50;3.90;;;;;;;10.73;84.77;98760.06;5015957;28;20041;-85
2023/04/12 07:34:19;;;;;;;8.25;4.47;;;;;;;10.75;84.66;98755.41;4988783;28;20138;-85
2023/04/12 07:36:45;;;;;;;6.07;3.78;;;;;;;10.78;84.79;98751.59;5014917;28;20046;-85
2023/04/12 07:39:13;;;;;;;7.50;3.42;;;;;;;10.79;84.35;98748.78;5014379;28;20463;-84
2023/04/12 07:41:45;;;;;;;7.25;2.78;;;;;;;10.82;84.53;98745.81;4999834;28;20125;-85
2023/04/12 07:44:12;;;;;;;6.53;2.70;;;;;;;10.82;84.03;98744.97;4997229;28;20047;-84
2023/04/12 07:46:40;;;;;;;12.02;3.33;;;;;;;10.87;84.39;98742.66;5001630;28;20370;-85
2023/04/12 07:49:09;;;;;;;10.68;3.30;;;;;;;10.88;84.68;98736.34;4993369;28;20049;-85
2023/04/12 07:51:36;;;;;;;6.40;3.00;;;;;;;10.92;84.44;98734.22;5013997;28;20111;-84
2023/04/12 07:54:03;;;;;;;9.65;3.45;;;;;;;10.90;84.64;98715.78;4976307;28;20041;-84
2023/04/12 07:56:33;;;;;;;11.77;3.35;;;;;;;10.94;84.29;98727.75;5005505;28;20099;-85
2023/04/12 07:58:59;;;;;;;7.28;2.75;;;;;;;10.99;83.95;98711.28;4966901;28;20422;-85
2023/04/12 08:01:29;;;;;;;6.15;3.13;;;;;;;11.01;84.00;98711.94;4965326;28;20050;-85
2023/04/12 08:03:56;;;;;;;8.60;2.80;;;;;;;11.04;84.18;98703.66;5004537;28;20057;-84
2023/04/12 08:06:25;;;;;;;10.57;3.40;;;;;;;11.05;84.07;98690.22;4989545;28;20065;-85
2023/04/12 08:08:56;;;;;;;7.57;3.10;;;;;;;11.05;84.66;98679.56;4965852;28;20440;-85
2023/04/12 08:11:23;;;;;;;8.35;4.05;;;;;;;11.08;84.24;98684.56;4997605;28;20444;-84
2023/04/12 08:13:49;;;;;;;8.10;3.22;;;;;;;11.08;84.29;98675.75;4996724;28;20053;-85
2023/04/12 08:16:16;;;;;;;8.75;3.35;;;;;;;11.10;84.39;98679.09;5011168;28;20053;-84
2023/04/12 08:18:43;;;;;;;11.75;3.83;;;;;;;11.12;84.60;98684.22;5011383;28;20058;-84
2023/04/12 08:21:10;;;;;;;7.00;3.47;;;;;;;11.11;84.51;98670.09;5010933;28;20409;-84
2023/04/12 08:23:37;;;;;;;7.40;3.45;;;;;;;11.12;84.62;98674.44;4992815;28;20452;-85
2023/04/12 08:26:04;;;;;;;9.57;3.47;;;;;;;11.12;84.57;98677.09;4985263;28;20041;-84
2023/04/12 08:28:31;;;;;;;5.78;3.10;;;;;;;11.13;84.90;98676.09;4980674;28;20045;-85
2023/04/12 08:30:59;;;;;;;7.55;3.00;;;;;;;11.13;84.81;98683.22;5008502;28;20111;-85
2023/04/12 08:33:25;;;;;;;10.38;3.22;;;;;;;11.12;85.26;98669.13;4993281;28;20048;-85
2023/04/12 08:35:53;;;;;;;9.10;3.20;;;;;;;11.16;84.88;98675.75;4981042;28;20318;-85
2023/04/12 08:38:19;;;;;;;8.57;3.70;;;;;;;11.18;84.94;98672.94;5000287;28;20114;-85
2023/04/12 08:41:06;;;;;;;10.30;4.18;;;;;;;11.18;85.50;98670.28;5008558;28;20053;-84
2023/04/12 08:43:34;;;;;;;8.85;3.80;;;;;;;11.18;85.49;98667.63;4997683;28;20128;-85
2023/04/12 08:46:00;;;;;;;14.73;3.78;;;;;;;11.19;85.56;98658.63;4997972;28;20041;-85
2023/04/12 08:48:28;;;;;;;7.00;3.47;;;;;;;11.22;85.26;98653.84;4997870;28;20045;-84
2023/04/12 08:50:56;;;;;;;12.25;4.10;;;;;;;11.29;85.26;98651.31;5010845;28;20041;-84
2023/04/12 08:53:23;;;;;;;11.90;4.45;;;;;;;11.30;85.07;98650.31;4996053;28;20062;-85
2023/04/12 08:55:50;;;;;;;11.65;4.13;;;;;;;11.35;84.98;98637.34;4973222;28;20048;-85
2023/04/12 08:58:18;;;;;;;12.48;4.82;;;;;;;11.38;85.22;98636.19;4981940;28;20056;-85
2023/04/12 09:00:46;;;;;;;12.43;3.75;;;;;;;11.41;85.46;98630.53;5015139;28;20073;-84
2023/04/12 09:03:12;;;;;;;9.02;4.00;;;;;;;11.45;84.97;98622.03;5004123;28;20494;-84
2023/04/12 09:05:40;;;;;;;14.00;4.28;;;;;;;11.52;84.97;98617.72;5004764;28;20057;-85
2023/04/12 09:08:07;;;;;;;13.23;4.25;;;;;;;11.56;84.54;98620.03;5014049;28;20122;-84
2023/04/12 09:10:35;;;;;;;9.82;4.00;;;;;;;11.61;84.62;98625.66;4997787;28;20058;-85
2023/04/12 09:13:05;;;;;;;12.20;4.40;;;;;;;11.60;84.72;98623.97;5013037;28;20049;-84
2023/04/12 09:15:33;;;;;;;11.02;4.68;;;;;;;11.64;84.53;98619.97;4990795;28;20046;-85
2023/04/12 09:18:09;;;;;;;10.52;4.68;;;;;;;11.66;84.42;98613.50;5009749;28;20048;-85
2023/04/12 09:20:37;;;;;;;11.20;4.40;;;;;;;11.67;84.29;98622.28;5009528;28;20065;-85
2023/04/12 09:23:21;;;;;;;11.30;5.03;;;;;;;11.61;85.47;98618.50;4988215;28;20045;-85
2023/04/12 09:25:50;;;;;;;13.25;4.03;;;;;;;11.66;84.16;98612.66;4994275;28;20052;-85
2023/04/12 09:28:19;;;;;;;9.80;4.22;;;;;;;11.67;84.07;98619.63;4999514;28;20076;-85
2023/04/12 09:30:52;;;;;;;12.02;4.82;;;;;;;11.67;84.56;98611.66;5016510;28;20046;-85
2023/04/12 09:33:22;;;;;;;14.05;4.68;;;;;;;11.69;84.15;98609.66;4969469;28;20045;-85
2023/04/12 09:35:48;;;;;;;19.80;5.95;;;;;;;11.69;84.57;98605.16;5013931;28;20506;-85
2023/04/12 09:38:15;;;;;;;13.95;5.50;;;;;;;11.68;84.75;98597.38;4999440;28;20052;-85
2023/04/12 09:40:42;;;;;;;20.23;6.85;;;;;;;11.69;84.92;98601.69;4969614;28;20060;-85
2023/04/12 09:43:09;;;;;;;21.33;5.75;;;;;;;11.70;85.10;98605.97;5011875;28;20113;-84
2023/04/12 09:45:39;;;;;;;15.40;4.32;;;;;;;11.70;84.94;98582.91;5007483;28;20513;-86
2023/04/12 09:48:06;;;;;;;12.18;3.97;;;;;;;11.72;85.16;98583.53;5000699;28;20502;-83
2023/04/12 09:50:33;;;;;;;12.18;4.88;;;;;;;11.77;85.23;98579.53;4976832;28;20103;-85
2023/04/12 09:53:02;;;;;;;15.43;5.10;;;;;;;11.78;85.46;98568.75;5012784;28;20045;-85
2023/04/12 09:55:33;;;;;;;15.05;5.30;;;;;;;11.80;85.35;98568.53;5001535;28;20053;-85
2023/04/12 09:58:03;;;;;;;16.15;4.90;;;;;;;11.79;85.96;98566.91;4981710;28;20400;-85
2023/04/12 10:00:32;;;;;;;10.55;5.03;;;;;;;11.80;85.74;98569.38;4986825;28;20053;-85
2023/04/12 10:03:00;;;;;;;16.40;6.25;;;;;;;11.81;85.64;98563.06;5008224;28;20395;-85
2023/04/12 10:05:28;;;;;;;16.77;5.95;;;;;;;11.80;85.85;98550.75;5019444;28;20414;-85
2023/04/12 10:07:59;;;;;;;14.48;4.47;;;;;;;11.83;85.76;98550.41;5016210;28;20501;-85
2023/04/12 10:10:29;;;;;;;13.13;4.60;;;;;;;11.87;86.03;98551.75;5003107;28;20552;-85
2023/04/12 10:12:56;;;;;;;14.38;4.55;;;;;;;11.90;85.89;98547.91;5015121;28;20060;-85
2023/04/12 10:15:24;;;;;;;10.43;4.43;;;;;;;11.93;86.19;98542.22;5012751;28;20053;-85
2023/04/12 10:17:56;;;;;;;17.08;4.88;;;;;;;11.91;86.31;98531.78;4996203;28;20053;-85
2023/04/12 10:20:23;;;;;;;20.25;5.50;;;;;;;11.93;87.25;98532.44;5014778;28;20128;-85
2023/04/12 10:22:55;;;;;;;11.13;4.32;;;;;;;11.99;86.75;98538.06;5000362;28;20050;-84
2023/04/12 10:25:25;;;;;;;25.63;6.07;;;;;;;11.97;87.13;98526.75;5012221;28;20081;-85
2023/04/12 10:27:53;;;;;;;19.38;6.03;;;;;;;11.98;87.16;98531.06;4996936;28;20053;-85
2023/04/12 10:30:20;;;;;;;15.88;5.25;;;;;;;12.01;87.57;98525.38;5014592;28;20061;-85
2023/04/12 10:32:48;;;;;;;17.65;5.68;;;;;;;12.03;87.63;98515.41;5007853;28;20456;-85
2023/04/12 10:35:15;;;;;;;16.85;5.00;;;;;;;12.04;87.79;98507.25;5009896;28;20041;-85
2023/04/12 10:37:56;;;;;;;17.63;6.43;;;;;;;12.01;89.63;98504.94;4996921;28;20049;-85
2023/04/12 10:40:23;;;;;;;18.65;5.28;;;;;;;12.04;88.12;98501.09;5006036;28;20045;-85
2023/04/12 10:43:21;;;;;;;15.75;5.55;;;;;;;12.00;89.19;98497.13;4999640;28;20415;-85
2023/04/12 10:45:48;;;;;;;11.43;5.15;;;;;;;12.03;88.10;98489.59;4998101;28;20045;-85
2023/04/12 10:48:35;;;;;;;19.58;5.80;;;;;;;12.02;89.04;98481.81;4984805;28;20402;-85
2023/04/12 10:51:25;;;;;;;14.50;6.03;;;;;;;12.01;91.25;98490.78;5008774;28;20157;-85
2023/04/12 10:54:23;;;;;;;13.93;6.05;;;;;;;12.01;89.98;98482.81;4987757;28;20052;-84
2023/04/12 10:56:50;;;;;;;16.70;6.05;;;;;;;12.06;88.62;98478.63;5017809;28;20042;-85
2023/04/12 10:59:53;;;;;;;12.93;6.07;;;;;;;12.02;90.28;98477.31;5006666;28;20124;-85
2023/04/12 11:02:20;;;;;;;19.10;6.05;;;;;;;12.07;89.17;98480.28;5010043;28;20054;-85
2023/04/12 11:05:03;;;;;;;17.30;6.80;;;;;;;12.06;89.54;98485.75;4993225;28;20049;-86
2023/04/12 11:07:52;;;;;;;23.05;9.88;;;;;;;12.09;89.16;98477.44;4985220;28;20541;-85
2023/04/12 11:10:37;;;;;;;20.65;7.78;;;;;;;12.10;89.49;98479.09;4999055;28;20102;-85
2023/04/12 11:13:07;;;;;;;15.98;6.32;;;;;;;12.14;90.12;98473.25;4971066;28;20053;-85
2023/04/12 11:15:37;;;;;;;15.80;5.38;;;;;;;12.14;89.93;98465.25;4977625;28;20469;-85
2023/04/12 11:18:13;;;;;;;11.02;5.00;;;;;;;12.17;89.89;98461.41;4967222;28;20119;-85
2023/04/12 11:20:40;;;;;;;15.45;4.53;;;;;;;12.18;90.28;98463.06;4983032;28;20048;-85
2023/04/12 11:23:07;;;;;;;14.07;4.72;;;;;;;12.19;90.53;98456.75;4984746;28;20049;-86
2023/04/12 11:25:37;;;;;;;13.65;4.53;;;;;;;12.21;90.64;98459.22;4972611;28;20064;-85
2023/04/12 11:28:04;;;;;;;11.68;4.03;;;;;;;12.24;90.27;98456.22;4983931;28;20422;-85
2023/04/12 11:30:54;;;;;;;10.93;4.78;;;;;;;12.26;90.21;98443.53;4988363;28;20064;-85
2023/04/12 11:33:37;;;;;;;13.18;4.68;;;;;;;12.26;91.05;98447.03;4995820;28;21484;-85
2023/04/12 11:36:06;;;;;;;16.65;5.55;;;;;;;12.32;91.05;98446.31;5013222;28;20058;-86
2023/04/12 11:38:34;;;;;;;17.70;7.32;;;;;;;12.35;90.55;98434.47;5002908;28;20498;-86
2023/04/12 11:41:01;;;;;;;19.83;9.05;;;;;;;12.35;90.94;98439.78;4995809;28;20048;-85
2023/04/12 11:43:28;;;;;;;17.52;9.57;;;;;;;12.33;90.61;98431.16;5005430;28;20060;-86